Time;durP1;ratioP1;P1;durP2;ratioP2;P2;SDS_P1;SDS_P2;PMS_P1;PMS_P2;Temp;Humidity;BMP_temperature;BMP_pressure;BME280_temperature;BME280_humidity;BME280_pressure;Samples;Min_cycle;Max_cycle;Signal;HPM_P1;HPM_P2
2023/06/01 00:00:31;;;;;;;7.60;6.90;;;;;;;24.78;44.75;98231.88;108345;1241;60455;-80
2023/06/01 00:02:59;;;;;;;7.90;6.50;;;;;;;24.78;44.77;98230.39;108078;1234;60520;-80
2023/06/01 00:05:27;;;;;;;7.80;7.00;;;;;;;24.78;44.74;98233.94;108212;1241;74502;-79
2023/06/01 00:07:54;;;;;;;7.80;7.10;;;;;;;24.78;44.78;98229.01;108501;1238;69682;-81
2023/06/01 00:10:21;;;;;;;7.70;6.90;;;;;;;24.77;44.80;98230.86;108150;1241;71902;-80
2023/06/01 00:12:49;;;;;;;7.80;7.10;;;;;;;24.77;44.73;98231.69;108372;1241;60758;-80
2023/06/01 00:15:16;;;;;;;7.80;7.10;;;;;;;24.77;44.75;98231.49;108679;1238;60410;-81
2023/06/01 00:17:43;;;;;;;8.40;7.30;;;;;;;24.77;44.72;98231.70;108322;1241;73853;-82
2023/06/01 00:20:11;;;;;;;7.00;6.40;;;;;;;24.77;44.75;98228.40;108684;1234;69434;-80
2023/06/01 00:22:39;;;;;;;7.50;6.80;;;;;;;24.76;44.73;98224.08;108613;1240;72417;-80
2023/06/01 00:25:07;;;;;;;6.60;5.90;;;;;;;24.76;44.74;98224.80;108528;1234;60397;-79
2023/06/01 00:27:36;;;;;;;8.10;6.80;;;;;;;24.76;44.77;98227.73;108677;1241;60510;-79
2023/06/01 00:30:04;;;;;;;7.70;6.80;;;;;;;24.76;44.75;98225.36;109692;1242;74482;-80
2023/06/01 00:32:33;;;;;;;8.30;7.50;;;;;;;24.76;44.76;98224.10;109036;1241;68569;-80
2023/06/01 00:35:01;;;;;;;7.20;6.50;;;;;;;24.76;44.72;98220.63;108893;1239;72688;-79
2023/06/01 00:37:29;;;;;;;6.20;5.70;;;;;;;24.76;44.76;98215.81;108180;1234;60490;-79
2023/06/01 00:39:57;;;;;;;7.50;6.80;;;;;;;24.77;44.71;98216.33;108159;1234;60563;-81
2023/06/01 00:42:24;;;;;;;7.50;6.50;;;;;;;24.77;44.74;98219.58;108158;1243;74027;-81
2023/06/01 00:44:53;;;;;;;7.30;6.60;;;;;;;24.77;44.75;98218.45;108202;1240;68873;-80
2023/06/01 00:47:20;;;;;;;6.60;6.00;;;;;;;24.76;44.71;98214.54;108214;1242;73140;-80
2023/06/01 00:49:48;;;;;;;7.20;6.50;;;;;;;24.76;44.72;98215.30;108454;1238;60429;-80
2023/06/01 00:52:16;;;;;;;6.90;6.20;;;;;;;24.76;44.75;98215.47;108148;1234;60518;-80
2023/06/01 00:54:43;;;;;;;7.10;6.00;;;;;;;24.76;44.65;98215.30;108309;1240;73814;-81
2023/06/01 00:57:10;;;;;;;6.70;6.10;;;;;;;24.76;44.80;98217.12;108212;1234;68699;-81
2023/06/01 00:59:38;;;;;;;6.90;6.20;;;;;;;24.76;44.63;98219.57;108162;1234;72794;-79
2023/06/01 01:02:05;;;;;;;6.10;5.50;;;;;;;24.75;44.67;98215.58;108158;1235;60431;-80
2023/06/01 01:04:34;;;;;;;6.80;6.10;;;;;;;24.75;44.70;98217.23;108557;1238;60927;-80
2023/06/01 01:07:28;;;;;;;6.20;5.60;;;;;;;24.74;44.76;98214.99;108275;1234;74296;-80
2023/06/01 01:10:06;;;;;;;6.20;5.60;;;;;;;24.74;44.73;98211.58;108381;1236;69268;-80
2023/06/01 01:13:03;;;;;;;6.30;5.80;;;;;;;24.73;44.72;98212.55;108164;1240;72856;-79
2023/06/01 01:15:43;;;;;;;5.60;5.10;;;;;;;24.73;44.73;98213.47;108507;1235;60872;-80
2023/06/01 01:18:17;;;;;;;6.20;5.60;;;;;;;24.74;44.77;98214.16;108258;1242;60618;-80
2023/06/01 01:20:48;;;;;;;6.20;5.50;;;;;;;24.73;44.75;98213.38;108413;1234;73917;-80
2023/06/01 01:23:24;;;;;;;5.60;5.10;;;;;;;24.73;44.68;98210.93;108420;1242;67524;-80
2023/06/01 01:26:15;;;;;;;6.60;6.00;;;;;;;24.73;44.75;98211.65;108597;1240;72835;-81
2023/06/01 01:28:53;;;;;;;5.80;5.30;;;;;;;24.72;44.72;98208.48;108977;1234;60437;-79
2023/06/01 01:31:24;;;;;;;6.00;5.40;;;;;;;24.72;44.84;98209.58;110634;1234;59682;-79
2023/06/01 01:33:55;;;;;;;6.20;5.60;;;;;;;24.72;44.71;98207.38;110923;1234;72731;-79
2023/06/01 01:36:24;;;;;;;5.40;4.90;;;;;;;24.73;44.72;98206.95;111855;1234;67705;-81
2023/06/01 01:38:52;;;;;;;6.10;5.50;;;;;;;24.74;44.66;98206.38;112039;1234;72970;-80
2023/06/01 01:41:20;;;;;;;5.80;5.30;;;;;;;24.75;44.76;98205.16;111882;1234;60420;-80
2023/06/01 01:43:49;;;;;;;5.80;5.00;;;;;;;24.77;44.71;98204.11;108610;1240;60548;-80
2023/06/01 01:46:27;;;;;;;5.70;5.20;;;;;;;24.79;44.65;98200.83;108789;1238;74145;-78
2023/06/01 01:49:12;;;;;;;6.00;5.50;;;;;;;24.80;44.57;98201.81;108368;1234;68176;-80
2023/06/01 01:51:46;;;;;;;5.50;4.80;;;;;;;24.80;44.52;98203.75;108269;1241;73137;-80
2023/06/01 01:54:13;;;;;;;5.30;4.80;;;;;;;24.80;44.56;98201.02;108297;1240;60459;-80
2023/06/01 01:56:41;;;;;;;5.90;5.30;;;;;;;24.80;44.52;98200.00;108288;1242;61285;-80
2023/06/01 01:59:08;;;;;;;6.10;5.00;;;;;;;24.80;44.58;98198.14;108395;1234;72595;-80
2023/06/01 02:01:35;;;;;;;5.50;5.00;;;;;;;24.79;44.58;98199.52;108127;1241;68223;-79
2023/06/01 02:04:04;;;;;;;5.10;4.70;;;;;;;24.79;44.49;98198.85;108145;1241;73843;-80
2023/06/01 02:06:32;;;;;;;5.60;4.90;;;;;;;24.78;44.52;98201.13;108273;1241;61131;-79
2023/06/01 02:09:00;;;;;;;5.30;4.80;;;;;;;24.77;44.46;98198.63;108195;1241;60422;-80
2023/06/01 02:11:28;;;;;;;5.10;4.60;;;;;;;24.77;44.51;98197.07;108142;1242;73946;-78
2023/06/01 02:13:56;;;;;;;5.40;4.90;;;;;;;24.76;44.48;98199.93;108096;1241;67813;-80
2023/06/01 02:16:23;;;;;;;5.70;5.20;;;;;;;24.76;44.54;98197.55;107932;1234;73014;-79
2023/06/01 02:18:51;;;;;;;5.00;4.40;;;;;;;24.75;44.62;98196.78;108168;1234;62524;-79
2023/06/01 02:21:18;;;;;;;7.00;5.00;;;;;;;24.74;44.56;98197.46;107946;1243;60513;-79
2023/06/01 02:23:46;;;;;;;5.90;5.30;;;;;;;24.73;44.62;98198.13;108098;1242;75143;-79
2023/06/01 02:26:13;;;;;;;5.20;4.70;;;;;;;24.73;44.59;98196.73;108101;1239;69052;-79
2023/06/01 02:28:41;;;;;;;5.40;4.60;;;;;;;24.72;44.60;98195.16;108140;1241;71516;-80
2023/06/01 02:31:09;;;;;;;5.20;4.70;;;;;;;24.71;44.59;98196.48;108163;1241;60511;-79
2023/06/01 02:33:38;;;;;;;5.60;5.00;;;;;;;24.71;44.63;98191.45;108152;1242;60488;-80
2023/06/01 02:36:07;;;;;;;5.50;5.00;;;;;;;24.70;44.59;98188.23;108263;1242;74433;-80
2023/06/01 02:38:35;;;;;;;5.50;5.00;;;;;;;24.69;44.63;98181.92;108359;1234;69890;-80
2023/06/01 02:41:02;;;;;;;5.20;4.70;;;;;;;24.69;44.68;98185.95;108598;1238;72773;-80
2023/06/01 02:43:35;;;;;;;5.20;4.70;;;;;;;24.68;44.59;98183.94;108338;1235;60522;-79
2023/06/01 02:46:03;;;;;;;5.40;5.00;;;;;;;24.68;44.69;98185.08;108638;1239;60334;-82
2023/06/01 02:48:32;;;;;;;5.60;4.20;;;;;;;24.67;44.65;98181.49;108304;1241;73921;-80
2023/06/01 02:51:00;;;;;;;5.80;5.20;;;;;;;24.67;44.63;98179.71;108258;1234;68872;-79
2023/06/01 02:53:28;;;;;;;4.80;4.40;;;;;;;24.67;44.68;98180.43;108256;1242;71647;-80
2023/06/01 02:55:55;;;;;;;5.20;4.80;;;;;;;24.66;44.67;98175.57;108163;1234;60512;-79
2023/06/01 02:58:29;;;;;;;5.50;4.90;;;;;;;24.67;44.72;98175.36;108012;1234;148680;-79
2023/06/01 03:01:05;;;;;;;5.70;5.30;;;;;;;24.66;44.65;98171.04;108245;1234;75342;-80
2023/06/01 03:03:33;;;;;;;5.70;4.80;;;;;;;24.66;44.68;98174.76;108334;1234;68507;-80
2023/06/01 03:06:02;;;;;;;5.70;5.20;;;;;;;24.65;44.59;98176.07;108256;1242;72614;-80
2023/06/01 03:08:52;;;;;;;5.60;5.00;;;;;;;24.65;44.66;98175.91;108313;1235;60501;-79
2023/06/01 03:11:46;;;;;;;5.60;5.00;;;;;;;24.65;44.63;98176.79;108150;1240;60404;-80
2023/06/01 03:14:14;;;;;;;5.80;5.10;;;;;;;24.65;44.66;98174.52;108185;1242;73899;-79
2023/06/01 03:16:41;;;;;;;4.60;4.20;;;;;;;24.65;44.65;98175.99;108307;1238;68589;-79
2023/06/01 03:19:16;;;;;;;6.50;5.80;;;;;;;24.65;44.61;98177.45;108428;1235;73110;-80
2023/06/01 03:21:46;;;;;;;5.60;5.10;;;;;;;24.64;44.63;98173.45;108240;1234;60844;-79
2023/06/01 03:24:17;;;;;;;5.50;5.00;;;;;;;24.65;44.55;98176.70;108417;1234;60468;-79
2023/06/01 03:26:45;;;;;;;6.00;5.40;;;;;;;24.64;44.56;98171.67;108176;1242;73626;-81
2023/06/01 03:29:12;;;;;;;5.70;5.20;;;;;;;24.64;44.63;98169.31;108287;1240;68706;-80
2023/06/01 03:31:41;;;;;;;6.40;5.60;;;;;;;24.64;44.58;98168.42;108129;1234;73195;-81
2023/06/01 03:34:08;;;;;;;6.60;5.90;;;;;;;24.64;44.68;98170.03;108136;1243;60797;-83
2023/06/01 03:36:36;;;;;;;5.50;5.00;;;;;;;24.63;44.54;98169.23;108383;1234;60411;-81
2023/06/01 03:39:08;;;;;;;6.70;6.10;;;;;;;24.64;44.62;98164.19;108375;1241;71740;-81
2023/06/01 03:41:36;;;;;;;5.90;5.20;;;;;;;24.64;44.56;98165.67;108321;1240;67315;-80
2023/06/01 03:44:04;;;;;;;6.80;6.20;;;;;;;24.63;44.57;98165.88;108207;1240;71952;-81
2023/06/01 03:46:33;;;;;;;6.30;5.70;;;;;;;24.63;44.58;98161.88;108392;1236;60981;-80
2023/06/01 03:49:00;;;;;;;7.40;6.60;;;;;;;24.63;44.55;98161.41;108372;1236;60449;-80
2023/06/01 03:51:28;;;;;;;7.00;6.40;;;;;;;24.63;44.61;98158.84;108461;1234;73937;-81
2023/06/01 03:53:55;;;;;;;6.90;6.30;;;;;;;24.63;44.60;98154.77;108161;1234;69342;-81
2023/06/01 03:56:23;;;;;;;6.80;6.10;;;;;;;24.63;44.51;98155.20;108196;1234;73321;-80
2023/06/01 03:58:52;;;;;;;5.90;5.40;;;;;;;24.63;44.52;98154.45;108324;1234;60890;-82
2023/06/01 04:01:21;;;;;;;7.30;6.70;;;;;;;24.63;44.60;98151.20;108574;1234;60405;-81
2023/06/01 04:03:50;;;;;;;7.50;6.80;;;;;;;24.63;44.51;98149.38;108363;1240;72701;-81
2023/06/01 04:06:17;;;;;;;7.00;6.40;;;;;;;24.62;44.50;98152.27;108314;1242;67920;-81
2023/06/01 04:08:49;;;;;;;7.60;6.90;;;;;;;24.63;44.54;98154.07;108272;1241;73130;-79
2023/06/01 04:11:16;;;;;;;7.30;6.60;;;;;;;24.63;44.57;98151.19;108363;1242;60752;-78
2023/06/01 04:13:44;;;;;;;7.00;6.40;;;;;;;24.62;44.50;98145.70;108540;1234;60516;-80
2023/06/01 04:16:12;;;;;;;7.80;7.10;;;;;;;24.62;44.45;98144.85;108644;1238;74681;-82
2023/06/01 04:18:41;;;;;;;8.30;7.40;;;;;;;24.62;44.52;98142.98;108376;1241;69363;-83
2023/06/01 04:21:16;;;;;;;7.20;6.60;;;;;;;24.63;44.51;98142.02;108383;1242;71985;-82
2023/06/01 04:23:46;;;;;;;8.40;7.50;;;;;;;24.62;44.52;98134.92;108220;1234;60488;-81
2023/06/01 04:26:15;;;;;;;7.30;6.60;;;;;;;24.63;44.45;98138.56;108232;1234;60515;-82
2023/06/01 04:28:43;;;;;;;8.20;7.50;;;;;;;24.62;44.47;98139.31;108526;1235;74522;-82
2023/06/01 04:31:19;;;;;;;7.80;7.10;;;;;;;24.63;44.53;98135.27;108626;1234;68574;-83
2023/06/01 04:33:52;;;;;;;7.10;6.50;;;;;;;24.62;44.56;98138.38;108346;1240;72879;-81
2023/06/01 04:36:22;;;;;;;7.50;6.80;;;;;;;24.62;44.54;98138.46;108477;1234;60419;-82
2023/06/01 04:38:57;;;;;;;7.50;6.80;;;;;;;24.62;44.49;98136.61;108526;1234;60438;-80
2023/06/01 04:41:27;;;;;;;8.70;7.80;;;;;;;24.62;44.50;98139.35;108536;1242;72763;-83
2023/06/01 04:43:54;;;;;;;7.40;6.70;;;;;;;24.62;44.53;98136.23;108319;1241;69515;-82
2023/06/01 04:46:26;;;;;;;8.10;7.30;;;;;;;24.63;44.48;98130.15;108171;1243;73217;-80
2023/06/01 04:48:59;;;;;;;9.40;7.90;;;;;;;24.62;44.52;98133.88;108634;1238;61628;-83
2023/06/01 04:51:28;;;;;;;7.20;6.50;;;;;;;24.62;44.49;98132.17;108444;1236;60504;-82
2023/06/01 04:53:56;;;;;;;7.60;6.90;;;;;;;24.62;44.48;98127.95;108331;1241;73935;-81
2023/06/01 04:56:26;;;;;;;8.10;6.80;;;;;;;24.63;44.51;98123.73;108517;1241;68328;-83
2023/06/01 04:58:56;;;;;;;7.00;6.40;;;;;;;24.62;44.47;98125.77;108465;1241;73332;-82
2023/06/01 05:01:26;;;;;;;7.50;6.80;;;;;;;24.63;44.53;98125.39;108650;1239;60709;-82
2023/06/01 05:03:55;;;;;;;8.50;7.30;;;;;;;24.63;44.51;98126.48;109491;1235;60405;-87
2023/06/01 05:22:46;;;;;;;11.00;4.00;;;;;;;24.07;41.95;98122.55;111644;1233;73834;-85
2023/06/01 05:25:32;;;;;;;10.40;4.40;;;;;;;23.97;41.37;98126.87;111315;1233;68012;-84
2023/06/01 05:32:01;;;;;;;14.20;4.50;;;;;;;23.71;41.14;98121.46;111736;1235;60405;-83
2023/06/01 07:41:46;;;;;;;9.80;2.40;;;;;;;23.51;38.71;98070.27;111727;1235;59288;-92
2023/06/01 10:37:05;;;;;;;5.10;2.50;;;;;;;24.46;38.14;97913.81;110778;1235;60514;-86
2023/06/01 11:28:00;;;;;;;;;;;;;;;24.76;38.40;97856.70;112024;1233;59467;-89
2023/06/01 11:37:55;;;;;;;3.10;2.50;;;;;;;24.81;38.30;97847.52;112031;1233;71229;-90
2023/06/01 11:44:23;;;;;;;5.00;2.30;;;;;;;24.84;38.46;97838.19;111440;1235;58951;-92
2023/06/01 11:47:55;;;;;;;3.40;1.90;;;;;;;24.85;38.71;97836.20;110888;1235;74094;-91
2023/06/01 11:50:31;;;;;;;3.60;2.30;;;;;;;24.85;38.95;97829.23;111193;1240;68163;-92
2023/06/01 11:53:25;;;;;;;5.60;2.10;;;;;;;24.85;39.05;97825.89;111072;1237;71861;-92
2023/06/01 11:55:57;;;;;;;;;;;;;;;24.85;39.29;97825.69;110519;1238;60937;-91
2023/06/01 12:02:29;;;;;;;4.20;1.90;;;;;;;24.85;39.60;97814.90;110894;1240;73899;-92
2023/06/01 12:08:54;;;;;;;3.20;2.40;;;;;;;24.86;39.90;97811.91;109541;1240;71421;-91
2023/06/01 12:11:27;;;;;;;2.90;1.60;;;;;;;24.86;39.96;97807.30;109928;1244;60532;-89
2023/06/01 12:13:58;;;;;;;5.70;1.90;;;;;;;24.86;40.01;97803.33;109384;1241;60546;-88
2023/06/01 12:16:56;;;;;;;3.00;1.70;;;;;;;24.87;40.47;97796.14;108726;1244;73638;-93
2023/06/01 12:19:31;;;;;;;5.30;2.30;;;;;;;24.88;40.70;97794.23;108653;1248;70422;-90
2023/06/01 12:22:05;;;;;;;4.40;2.20;;;;;;;24.89;40.89;97796.61;108436;1243;72972;-90
2023/06/01 12:24:48;;;;;;;4.70;2.50;;;;;;;24.90;41.28;97794.27;109448;1242;59417;-91
2023/06/01 14:19:25;;;;;;;7.40;2.70;;;;;;;25.10;43.11;97706.50;104004;1290;615855;-86
2023/06/01 14:21:52;;;;;;;14.30;3.10;;;;;;;25.14;43.03;97706.36;105925;1269;60104;-84
2023/06/01 14:24:20;;;;;;;6.60;2.70;;;;;;;25.17;42.96;97704.73;106545;1254;61155;-85
2023/06/01 14:26:50;;;;;;;10.30;3.10;;;;;;;25.20;43.06;97706.09;106573;1259;72287;-85
2023/06/01 14:29:17;;;;;;;17.20;3.40;;;;;;;25.22;43.06;97701.51;107085;1259;68811;-84
2023/06/01 14:31:45;;;;;;;10.30;2.60;;;;;;;25.24;43.11;97705.77;106237;1259;183542;-85
2023/06/01 14:34:12;;;;;;;14.50;3.60;;;;;;;25.27;43.14;97704.53;106206;1253;59327;-85
2023/06/01 14:36:41;;;;;;;7.40;2.30;;;;;;;25.30;43.25;97703.88;106214;1254;59285;-84
2023/06/01 14:39:14;;;;;;;9.00;2.70;;;;;;;25.31;43.04;97698.67;106346;1256;72591;-84
2023/06/01 14:41:42;;;;;;;11.40;3.10;;;;;;;25.33;43.15;97698.63;106432;1254;68347;-85
2023/06/01 14:44:12;;;;;;;11.50;2.70;;;;;;;25.34;43.21;97689.48;106288;1257;75020;-86
2023/06/01 14:46:41;;;;;;;9.00;3.40;;;;;;;25.35;43.01;97688.55;106220;1255;59677;-85
2023/06/01 14:49:09;;;;;;;10.70;2.90;;;;;;;25.37;43.20;97686.69;106374;1254;61695;-85
2023/06/01 14:51:37;;;;;;;11.00;3.20;;;;;;;25.38;43.12;97680.06;106295;1257;74818;-83
2023/06/01 14:54:05;;;;;;;11.30;3.70;;;;;;;25.39;43.07;97677.20;106298;1254;68402;-86
2023/06/01 14:56:33;;;;;;;11.50;2.90;;;;;;;25.41;43.06;97678.45;106275;1257;73207;-85
2023/06/01 14:59:00;;;;;;;6.70;2.20;;;;;;;25.41;42.93;97677.05;106291;1257;60324;-86
2023/06/01 15:01:29;;;;;;;7.70;2.50;;;;;;;25.42;43.09;97673.23;106173;1254;59647;-85
2023/06/01 15:03:57;;;;;;;10.30;2.40;;;;;;;25.43;42.99;97672.64;106163;1258;73801;-85
2023/06/01 15:06:25;;;;;;;11.10;3.20;;;;;;;25.43;43.00;97672.35;106041;1257;69217;-85
2023/06/01 15:08:53;;;;;;;9.60;3.00;;;;;;;25.45;42.97;97667.81;106106;1254;73163;-85
2023/06/01 15:11:20;;;;;;;9.90;3.30;;;;;;;25.45;43.03;97667.73;105983;1259;59742;-86
2023/06/01 15:13:48;;;;;;;10.90;3.80;;;;;;;25.45;43.07;97662.06;106304;1254;61717;-85
2023/06/01 15:16:17;;;;;;;9.90;3.30;;;;;;;25.46;43.07;97659.02;106232;1259;74271;-86
2023/06/01 15:18:45;;;;;;;8.00;3.10;;;;;;;25.46;43.08;97661.00;106123;1253;69242;-84
2023/06/01 15:21:13;;;;;;;9.50;3.10;;;;;;;25.47;43.06;97658.16;106105;1259;72967;-86
2023/06/01 15:23:41;;;;;;;6.80;2.40;;;;;;;25.47;42.99;97658.33;106167;1254;60415;-85
2023/06/01 15:26:10;;;;;;;7.70;2.80;;;;;;;25.47;43.10;97654.77;106150;1258;60221;-84
2023/06/01 15:28:38;;;;;;;6.60;3.10;;;;;;;25.47;43.18;97653.89;105874;1261;73229;-86
2023/06/01 15:31:06;;;;;;;5.00;2.90;;;;;;;25.47;43.05;97658.58;106020;1258;68822;-86
2023/06/01 15:33:35;;;;;;;10.90;3.20;;;;;;;25.48;43.09;97651.73;106179;1260;73258;-85
2023/06/01 15:36:05;;;;;;;6.10;2.90;;;;;;;25.47;43.30;97652.19;106148;1258;59621;-83
2023/06/01 15:38:35;;;;;;;9.00;3.40;;;;;;;25.48;43.22;97654.14;105945;1253;60612;-85
2023/06/01 15:41:03;;;;;;;8.20;3.40;;;;;;;25.48;43.03;97649.14;106072;1254;72567;-85
2023/06/01 15:43:36;;;;;;;10.90;3.40;;;;;;;25.48;43.11;97651.94;105929;1254;67790;-84
2023/06/01 15:46:03;;;;;;;7.70;3.20;;;;;;;25.48;43.15;97650.41;106087;1256;71654;-85
2023/06/01 15:48:31;;;;;;;11.80;3.20;;;;;;;25.48;43.28;97646.82;105924;1254;60321;-85
2023/06/01 15:50:59;;;;;;;7.60;2.70;;;;;;;25.48;43.09;97646.61;106057;1260;59637;-86
2023/06/01 15:53:26;;;;;;;8.50;2.70;;;;;;;25.49;43.16;97643.05;105845;1252;72568;-84
2023/06/01 15:55:54;;;;;;;10.00;3.20;;;;;;;25.48;43.25;97639.30;106171;1258;68128;-85
2023/06/01 15:58:21;;;;;;;7.10;2.70;;;;;;;25.48;43.23;97637.60;105960;1258;73780;-85
2023/06/01 16:00:48;;;;;;;10.90;2.90;;;;;;;25.48;43.23;97638.70;105947;1259;60664;-86
2023/06/01 16:03:33;;;;;;;9.20;2.90;;;;;;;25.47;43.22;97637.52;106270;1254;59618;-85
2023/06/01 16:06:01;;;;;;;9.10;3.40;;;;;;;25.48;43.33;97636.54;106098;1259;73776;-84
2023/06/01 16:08:28;;;;;;;8.10;3.00;;;;;;;25.48;43.32;97634.02;106411;1256;69597;-86
2023/06/01 16:10:56;;;;;;;5.30;2.40;;;;;;;25.47;43.32;97633.50;106109;1257;72778;-85
2023/06/01 16:13:23;;;;;;;9.10;2.70;;;;;;;25.48;43.24;97637.48;106057;1257;60376;-85
2023/06/01 16:15:51;;;;;;;7.20;3.00;;;;;;;25.48;43.26;97636.77;106018;1255;59654;-85
2023/06/01 16:18:18;;;;;;;8.10;3.20;;;;;;;25.48;43.30;97635.63;106886;1254;73101;-85
2023/06/01 16:20:48;;;;;;;8.60;3.50;;;;;;;25.48;43.40;97631.27;109199;1254;67946;-84
2023/06/01 16:23:17;;;;;;;6.10;2.70;;;;;;;25.48;43.37;97627.92;109429;1253;72855;-84
2023/06/01 16:25:45;;;;;;;12.70;3.60;;;;;;;25.49;43.30;97629.64;107896;1254;59650;-85
2023/06/01 16:28:12;;;;;;;5.00;2.80;;;;;;;25.50;43.50;97629.30;106201;1254;60435;-84
2023/06/01 16:30:41;;;;;;;4.60;2.60;;;;;;;25.51;43.31;97628.63;106057;1252;71560;-85
2023/06/01 16:33:10;;;;;;;7.30;3.20;;;;;;;25.51;43.28;97625.67;105924;1259;69577;-84
2023/06/01 16:35:38;;;;;;;5.90;3.00;;;;;;;25.51;43.30;97623.80;106011;1258;73409;-86
2023/06/01 16:38:05;;;;;;;6.90;2.80;;;;;;;25.52;43.35;97621.29;105798;1257;60538;-84
2023/06/01 16:40:33;;;;;;;6.90;3.10;;;;;;;25.52;43.34;97624.05;106075;1254;59618;-85
2023/06/01 16:43:01;;;;;;;4.50;2.50;;;;;;;25.51;43.38;97621.55;105836;1261;73804;-85
2023/06/01 16:45:29;;;;;;;9.00;2.70;;;;;;;25.51;43.31;97614.67;106111;1256;68189;-86
2023/06/01 16:47:59;;;;;;;11.20;2.80;;;;;;;25.50;43.42;97611.96;106021;1257;72644;-85
2023/06/01 16:50:27;;;;;;;5.10;2.90;;;;;;;25.50;43.47;97611.71;106211;1256;60500;-86
2023/06/01 16:52:56;;;;;;;8.40;2.60;;;;;;;25.49;43.34;97610.70;106111;1257;59515;-85
2023/06/01 16:55:23;;;;;;;6.10;3.00;;;;;;;25.49;43.45;97609.27;105871;1262;74398;-85
2023/06/01 16:57:51;;;;;;;8.90;2.90;;;;;;;25.48;43.35;97608.25;105817;1254;68185;-86
2023/06/01 17:00:20;;;;;;;4.90;2.60;;;;;;;25.48;43.59;97605.04;105971;1260;74047;-86
2023/06/01 17:02:48;;;;;;;7.50;2.60;;;;;;;25.47;43.50;97608.64;105977;1254;60410;-85
2023/06/01 17:05:16;;;;;;;7.20;2.60;;;;;;;25.46;43.53;97609.48;106054;1257;60674;-84
2023/06/01 17:07:43;;;;;;;5.30;2.40;;;;;;;25.46;43.48;97608.27;105935;1259;70982;-85
2023/06/01 17:10:11;;;;;;;7.00;2.90;;;;;;;25.45;43.58;97611.27;106103;1257;68035;-85
2023/06/01 17:12:38;;;;;;;5.60;2.90;;;;;;;25.45;43.62;97610.42;105974;1257;72832;-85
2023/06/01 17:15:07;;;;;;;6.60;3.00;;;;;;;25.44;43.66;97606.24;106031;1254;62182;-85
2023/06/01 17:17:35;;;;;;;6.90;2.70;;;;;;;25.44;43.65;97606.16;105873;1254;60392;-85
2023/06/01 17:20:04;;;;;;;6.50;2.30;;;;;;;25.43;43.57;97605.14;106045;1252;72166;-85
2023/06/01 17:22:32;;;;;;;4.60;2.40;;;;;;;25.42;43.74;97605.02;105975;1255;68091;-84
2023/06/01 17:25:02;;;;;;;5.40;2.70;;;;;;;25.42;43.63;97605.13;106035;1253;72781;-84
2023/06/01 17:27:30;;;;;;;6.00;2.80;;;;;;;25.41;43.69;97608.67;106123;1254;60858;-85
2023/06/01 17:29:59;;;;;;;4.50;2.80;;;;;;;25.41;43.87;97607.66;106030;1257;61125;-85
2023/06/01 17:32:26;;;;;;;5.20;2.40;;;;;;;25.41;43.72;97606.05;105959;1258;74349;-86
2023/06/01 17:34:54;;;;;;;7.00;2.90;;;;;;;25.40;43.83;97608.52;106056;1257;69321;-84
2023/06/01 17:37:21;;;;;;;5.40;2.20;;;;;;;25.40;43.77;97602.88;106021;1257;73095;-85
2023/06/01 17:39:49;;;;;;;6.80;3.30;;;;;;;25.39;43.88;97606.33;105773;1260;59644;-85
2023/06/01 17:42:16;;;;;;;4.60;3.00;;;;;;;25.38;43.82;97604.42;105865;1255;59662;-84
2023/06/01 17:44:44;;;;;;;6.10;3.30;;;;;;;25.38;43.91;97605.02;106037;1254;73232;-85
2023/06/01 17:47:11;;;;;;;5.80;2.90;;;;;;;25.38;43.84;97603.75;105831;1255;68884;-85
2023/06/01 17:49:39;;;;;;;5.70;2.80;;;;;;;25.37;43.93;97600.04;105842;1259;70817;-85
2023/06/01 17:52:07;;;;;;;6.20;3.20;;;;;;;25.36;43.90;97600.85;105915;1255;60433;-85
2023/06/01 17:54:34;;;;;;;4.70;2.90;;;;;;;25.35;44.04;97602.79;106348;1255;59844;-84
2023/06/01 17:57:02;;;;;;;5.10;2.50;;;;;;;25.35;43.93;97603.39;106091;1252;72022;-85
2023/06/01 17:59:32;;;;;;;6.50;2.90;;;;;;;25.35;43.98;97603.43;105897;1261;69590;-85
2023/06/01 18:01:59;;;;;;;3.70;2.40;;;;;;;25.34;44.05;97603.02;106038;1260;73074;-84
2023/06/01 18:04:28;;;;;;;4.90;2.50;;;;;;;25.34;44.06;97600.05;105986;1254;60830;-85
2023/06/01 18:06:55;;;;;;;5.40;2.50;;;;;;;25.34;44.02;97603.91;105898;1257;60129;-84
2023/06/01 18:09:23;;;;;;;4.50;2.50;;;;;;;25.33;44.06;97605.69;106034;1254;71884;-83
2023/06/01 18:11:50;;;;;;;4.50;1.90;;;;;;;25.33;43.98;97608.25;106051;1259;67843;-85
2023/06/01 18:14:19;;;;;;;6.90;2.80;;;;;;;25.33;44.04;97605.56;105939;1254;73515;-86
2023/06/01 18:16:49;;;;;;;6.20;2.60;;;;;;;25.32;44.12;97611.65;105882;1254;61026;-85
2023/06/01 18:19:17;;;;;;;7.30;2.70;;;;;;;25.32;44.11;97612.99;106001;1254;60455;-85
2023/06/01 18:21:45;;;;;;;4.60;2.10;;;;;;;25.31;44.11;97618.76;106053;1260;73052;-85
2023/06/01 18:24:12;;;;;;;4.00;2.70;;;;;;;25.31;44.11;97621.17;105894;1254;68996;-85
2023/06/01 18:26:40;;;;;;;5.70;2.40;;;;;;;25.31;44.23;97619.95;106167;1253;73273;-85
2023/06/01 18:29:07;;;;;;;3.30;2.30;;;;;;;25.30;44.25;97625.02;106041;1254;60446;-84
2023/06/01 18:31:35;;;;;;;6.70;2.70;;;;;;;25.30;44.28;97623.54;105896;1254;60442;-86
2023/06/01 18:34:02;;;;;;;4.60;2.60;;;;;;;25.29;44.27;97627.65;106046;1259;74009;-85
2023/06/01 18:36:31;;;;;;;7.30;2.80;;;;;;;25.29;44.21;97632.64;105793;1254;68918;-84
2023/06/01 18:38:58;;;;;;;3.80;2.30;;;;;;;25.29;44.24;97630.48;105810;1254;71460;-85
2023/06/01 18:41:26;;;;;;;3.80;2.20;;;;;;;25.29;44.26;97631.45;105939;1254;60818;-84
2023/06/01 18:43:53;;;;;;;3.90;2.20;;;;;;;25.28;44.29;97633.34;106135;1254;60411;-85
2023/06/01 18:46:22;;;;;;;3.00;2.10;;;;;;;25.28;44.32;97631.70;106073;1260;72986;-86
2023/06/01 18:48:49;;;;;;;3.30;2.30;;;;;;;25.27;44.30;97634.35;105967;1258;70110;-84
2023/06/01 18:51:18;;;;;;;4.30;2.30;;;;;;;25.27;44.21;97633.08;106635;1254;71372;-84
2023/06/01 18:53:47;;;;;;;4.10;2.30;;;;;;;25.27;44.33;97636.59;106763;1252;60425;-85
2023/06/01 18:56:15;;;;;;;4.10;2.70;;;;;;;25.26;44.41;97635.58;106401;1254;59270;-86
2023/06/01 18:58:47;;;;;;;3.50;2.50;;;;;;;25.26;44.42;97640.15;106119;1254;74302;-85
2023/06/01 19:01:15;;;;;;;4.50;2.50;;;;;;;25.26;44.39;97642.89;109192;1254;69575;-85
2023/06/01 19:03:47;;;;;;;4.00;2.30;;;;;;;25.27;44.30;97643.58;109338;1252;71359;-85
2023/06/01 19:06:14;;;;;;;4.40;2.10;;;;;;;25.28;44.34;97640.70;108618;1253;60549;-85
2023/06/01 19:08:42;;;;;;;3.90;2.70;;;;;;;25.28;44.22;97641.20;106019;1254;60857;-85
2023/06/01 19:11:09;;;;;;;7.20;2.30;;;;;;;25.30;44.32;97644.69;105862;1260;73597;-83
2023/06/01 19:13:44;;;;;;;3.70;2.70;;;;;;;25.30;44.39;97642.27;105979;1255;69521;-86
2023/06/01 19:16:16;;;;;;;4.70;2.20;;;;;;;25.30;44.25;97641.89;106026;1257;71856;-87
2023/06/01 19:18:53;;;;;;;3.60;2.40;;;;;;;25.30;44.23;97640.75;105943;1255;60431;-84
2023/06/01 19:21:30;;;;;;;4.50;2.60;;;;;;;25.30;44.23;97642.61;105954;1254;60485;-85
2023/06/01 19:24:07;;;;;;;3.00;2.20;;;;;;;25.29;44.24;97646.71;106081;1255;75133;-85
2023/06/01 19:26:35;;;;;;;3.10;1.80;;;;;;;25.29;44.33;97641.81;105945;1254;70037;-85
2023/06/01 19:29:05;;;;;;;5.20;2.60;;;;;;;25.29;44.31;97643.88;105948;1253;72646;-84
2023/06/01 19:31:35;;;;;;;4.00;2.20;;;;;;;25.28;44.31;97642.94;106197;1256;60433;-84
2023/06/01 19:34:03;;;;;;;3.60;2.20;;;;;;;25.27;44.38;97645.77;106128;1256;60431;-85
2023/06/01 19:36:43;;;;;;;4.30;2.40;;;;;;;25.26;44.36;97644.92;105965;1258;74452;-84
2023/06/01 19:39:27;;;;;;;4.70;2.40;;;;;;;25.25;44.41;97644.84;106110;1255;69319;-85
2023/06/01 19:42:03;;;;;;;5.10;2.40;;;;;;;25.24;44.35;97641.39;106111;1258;73394;-84
2023/06/01 19:44:31;;;;;;;4.80;2.50;;;;;;;25.23;44.37;97644.77;105868;1254;60491;-85
2023/06/01 19:46:58;;;;;;;4.60;2.40;;;;;;;25.23;44.51;97643.16;105791;1254;60540;-85
2023/06/01 19:49:32;;;;;;;5.70;2.10;;;;;;;25.22;44.40;97643.80;105896;1255;74189;-85
2023/06/01 19:52:00;;;;;;;5.20;2.50;;;;;;;25.21;44.47;97642.11;106009;1260;68343;-85
2023/06/01 19:54:27;;;;;;;3.50;2.40;;;;;;;25.21;44.41;97641.23;105827;1253;72040;-84
2023/06/01 19:56:56;;;;;;;3.10;2.20;;;;;;;25.20;44.30;97644.11;105787;1254;60531;-83